Time;durP1;ratioP1;P1;durP2;ratioP2;P2;SDS_P1;SDS_P2;PMS_P1;PMS_P2;Temp;Humidity;BMP_temperature;BMP_pressure;BME280_temperature;BME280_humidity;BME280_pressure;Samples;Min_cycle;Max_cycle;Signal;HPM_P1;HPM_P2
2022/01/28 00:00:34;;;;;;;8.90;4.30;;;;;;;2.10;89.40;98527.79;431163;1270;142506;-63
2022/01/28 00:10:40;;;;;;;6.30;4.20;;;;;;;2.11;89.05;98509.77;431482;1270;142853;-62
2022/01/28 00:41:35;;;;;;;3.90;2.90;;;;;;;2.01;88.85;98493.52;431483;1271;142573;-63
2022/01/28 00:51:41;;;;;;;4.60;3.80;;;;;;;2.02;88.79;98479.14;432354;1270;141931;-62
2022/01/28 01:01:47;;;;;;;4.70;2.60;;;;;;;1.97;88.27;98459.84;430500;1271;141053;-64
2022/01/28 01:11:53;;;;;;;3.80;2.70;;;;;;;1.93;87.89;98442.94;431140;1271;142408;-64
2022/01/28 01:22:00;;;;;;;4.10;1.50;;;;;;;1.97;87.34;98436.74;431084;1270;141677;-62
2022/01/28 01:32:13;;;;;;;4.30;1.90;;;;;;;2.00;87.09;98449.17;430088;1271;142928;-64
2022/01/28 01:42:27;;;;;;;3.10;2.40;;;;;;;1.99;86.73;98449.91;430682;1271;144200;-63
2022/01/28 01:52:33;;;;;;;4.90;1.90;;;;;;;1.95;86.63;98428.18;431314;1270;141584;-62
2022/01/28 02:02:40;;;;;;;3.20;2.00;;;;;;;1.93;86.26;98412.02;430354;1271;141887;-62
2022/01/28 02:12:51;;;;;;;2.40;1.20;;;;;;;1.92;86.01;98395.72;431576;1270;141750;-62
2022/01/28 02:22:58;;;;;;;4.50;2.00;;;;;;;1.84;85.96;98381.40;431148;1271;141964;-63
2022/01/28 02:33:11;;;;;;;5.30;1.70;;;;;;;1.71;86.38;98380.81;431710;1272;141874;-63
2022/01/28 02:43:29;;;;;;;3.50;1.70;;;;;;;1.64;86.86;98393.76;431590;1273;140954;-62
2022/01/28 02:53:47;;;;;;;6.70;2.10;;;;;;;1.41;87.04;98396.35;430992;1273;142043;-64
2022/01/28 03:03:54;;;;;;;1.70;1.10;;;;;;;1.19;87.53;98384.70;431231;1271;143340;-62
2022/01/28 03:14:14;;;;;;;5.30;2.00;;;;;;;1.13;87.92;98380.88;430319;1271;145878;-63
2022/01/28 03:24:20;;;;;;;4.80;2.30;;;;;;;1.15;88.22;98381.30;431336;1271;141849;-62
2022/01/28 03:34:27;;;;;;;2.70;1.40;;;;;;;1.18;88.40;98380.47;430862;1271;141940;-61
2022/01/28 03:44:35;;;;;;;2.20;1.90;;;;;;;1.19;88.49;98384.05;430594;1271;141029;-62
2022/01/28 03:54:41;;;;;;;3.10;2.00;;;;;;;1.16;88.83;98386.40;431258;1272;146602;-61
2022/01/28 04:15:23;;;;;;;3.50;2.30;;;;;;;1.08;89.16;98392.76;430778;1273;141757;-63
2022/01/28 04:25:30;;;;;;;3.70;2.70;;;;;;;1.12;89.40;98398.84;431077;1271;143302;-62
2022/01/28 04:35:36;;;;;;;7.60;3.30;;;;;;;1.19;89.59;98409.39;430900;1271;142321;-61
2022/01/28 04:45:48;;;;;;;4.30;1.70;;;;;;;1.25;89.53;98413.94;431209;1271;141784;-62
2022/01/28 04:56:08;;;;;;;4.20;1.90;;;;;;;1.33;89.38;98422.90;430646;1271;142468;-62
2022/01/28 05:17:01;;;;;;;4.40;2.10;;;;;;;1.35;89.34;98448.50;431783;1271;143197;-63
2022/01/28 05:27:11;;;;;;;3.50;2.20;;;;;;;1.32;89.57;98461.23;431883;1271;142332;-62
2022/01/28 05:37:17;;;;;;;6.30;2.60;;;;;;;1.26;89.90;98473.71;432036;1271;141318;-66
2022/01/28 05:47:24;;;;;;;8.50;2.30;;;;;;;1.26;90.42;98477.88;431909;1271;141661;-62
2022/01/28 05:57:30;;;;;;;6.60;2.80;;;;;;;1.28;90.49;98482.10;431230;1270;141322;-62
2022/01/28 06:07:41;;;;;;;10.30;4.10;;;;;;;1.30;90.17;98492.90;431196;1273;142586;-61
2022/01/28 06:17:47;;;;;;;7.70;2.90;;;;;;;1.30;90.06;98507.16;431172;1273;142087;-63
2022/01/28 06:27:53;;;;;;;4.00;1.60;;;;;;;1.26;90.00;98528.73;431283;1273;142624;-64
2022/01/28 06:37:59;;;;;;;4.90;2.50;;;;;;;1.14;90.08;98555.61;431302;1271;141366;-63
2022/01/28 06:48:07;;;;;;;10.50;3.20;;;;;;;1.04;90.12;98567.89;431949;1271;141542;-62
2022/01/28 06:58:13;;;;;;;11.20;3.80;;;;;;;1.00;90.25;98577.58;431533;1271;142201;-63
2022/01/28 07:08:19;;;;;;;8.80;2.50;;;;;;;1.03;90.47;98596.05;431776;1271;142246;-62
2022/01/28 07:18:25;;;;;;;5.20;2.40;;;;;;;1.07;90.61;98608.31;431197;1271;143252;-62
2022/01/28 07:28:34;;;;;;;7.00;2.60;;;;;;;1.02;90.59;98634.51;430404;1274;141007;-63
2022/01/28 07:38:40;;;;;;;3.00;1.60;;;;;;;1.00;90.91;98655.11;429915;1274;143965;-64
2022/01/28 07:48:46;;;;;;;4.70;1.90;;;;;;;1.00;91.15;98682.84;430760;1271;142258;-61
2022/01/28 07:58:51;;;;;;;3.90;1.40;;;;;;;0.97;91.04;98715.56;430396;1271;142201;-63
2022/01/28 08:08:59;;;;;;;4.40;1.30;;;;;;;0.85;91.04;98739.43;431317;1271;144025;-62
2022/01/28 08:19:05;;;;;;;1.80;1.20;;;;;;;0.81;90.99;98764.22;430610;1271;142465;-60
2022/01/28 08:29:11;;;;;;;4.60;1.60;;;;;;;0.86;91.21;98777.31;429951;1271;145640;-63
2022/01/28 08:39:17;;;;;;;2.00;1.80;;;;;;;0.92;91.29;98789.68;431530;1271;142775;-68
2022/01/28 08:49:23;;;;;;;7.50;2.40;;;;;;;1.07;91.50;98809.78;431413;1271;141038;-68
2022/01/28 08:59:29;;;;;;;16.60;4.00;;;;;;;1.29;91.65;98824.98;431859;1270;143343;-66
2022/01/28 09:09:35;;;;;;;5.70;2.60;;;;;;;1.43;91.50;98846.75;431402;1271;141483;-69
2022/01/28 09:19:43;;;;;;;1.50;0.50;;;;;;;1.45;91.28;98896.66;430994;1273;141206;-59
2022/01/28 09:29:50;;;;;;;3.00;1.20;;;;;;;1.00;89.83;98930.18;432008;1272;140833;-59
2022/01/28 09:39:56;;;;;;;1.80;0.50;;;;;;;0.64;89.86;98952.61;431798;1271;141733;-61
2022/01/28 09:50:07;;;;;;;1.10;0.80;;;;;;;0.40;89.84;98988.86;430734;1271;142733;-58
2022/01/28 10:00:15;;;;;;;2.10;1.10;;;;;;;0.35;90.52;98995.55;431315;1271;146450;-59
2022/01/28 10:10:21;;;;;;;6.20;2.10;;;;;;;0.69;90.76;99004.97;431287;1272;141324;-61
2022/01/28 10:20:29;;;;;;;5.80;2.50;;;;;;;1.03;90.64;99027.98;430144;1273;141335;-58
2022/01/28 10:30:38;;;;;;;2.50;2.20;;;;;;;1.16;90.68;99044.80;431089;1273;145597;-59
2022/01/28 10:41:10;;;;;;;3.80;2.00;;;;;;;1.28;90.64;99070.10;431155;1271;169854;-62
2022/01/28 10:51:17;;;;;;;4.70;2.30;;;;;;;1.57;90.13;99084.95;433252;1272;141279;-60
2022/01/28 11:01:44;;;;;;;3.20;2.00;;;;;;;1.62;89.44;99102.55;431109;1271;142919;-60
2022/01/28 11:11:50;;;;;;;3.00;1.50;;;;;;;1.57;89.44;99117.08;432118;1273;141036;-61
2022/01/28 11:22:14;;;;;;;2.40;1.40;;;;;;;1.61;88.94;99134.36;432161;1273;141753;-60
2022/01/28 11:32:20;;;;;;;2.50;1.40;;;;;;;1.90;88.17;99158.02;430992;1273;142567;-60
2022/01/28 11:42:30;;;;;;;2.10;1.40;;;;;;;1.97;87.15;99162.10;435428;1271;141661;-62
2022/01/28 11:52:39;;;;;;;1.40;1.10;;;;;;;2.23;85.94;99179.45;430954;1272;141336;-60
2022/01/28 12:02:53;;;;;;;0.90;0.90;;;;;;;2.22;85.45;99199.21;430728;1271;142121;-60
2022/01/28 12:13:01;;;;;;;2.20;1.40;;;;;;;2.22;85.60;99214.06;431417;1273;140775;-61
2022/01/28 12:23:37;;;;;;;1.90;1.00;;;;;;;2.26;85.55;99228.08;431027;1271;142374;-59
2022/01/28 12:33:45;;;;;;;2.30;1.50;;;;;;;2.04;85.15;99253.69;440519;1271;142328;-60
2022/01/28 12:43:52;;;;;;;3.10;2.00;;;;;;;1.64;86.21;99275.22;430787;1270;141798;-64
2022/01/28 12:53:58;;;;;;;2.30;1.90;;;;;;;1.36;86.57;99286.44;431535;1271;140710;-60
2022/01/28 13:04:10;;;;;;;3.00;2.20;;;;;;;1.20;87.00;99303.48;431848;1270;141108;-71
2022/01/28 13:14:20;;;;;;;3.00;1.60;;;;;;;1.13;87.43;99326.97;430763;1270;141780;-72
2022/01/28 13:24:28;;;;;;;3.10;1.90;;;;;;;1.21;87.43;99338.64;430927;1270;142062;-67
2022/01/28 13:34:48;;;;;;;1.90;1.80;;;;;;;1.41;87.44;99353.39;431794;1271;141755;-66
2022/01/28 13:44:55;;;;;;;3.70;2.20;;;;;;;1.63;87.36;99363.58;431433;1271;141093;-67
2022/01/28 13:55:00;;;;;;;;;;;;;;;1.85;86.74;99380.37;432549;1270;140922;-68
2022/01/28 14:05:11;;;;;;;3.40;2.00;;;;;;;1.90;86.34;99395.38;430286;1271;127529;-69
2022/01/28 14:15:27;;;;;;;5.10;1.90;;;;;;;1.96;85.67;99418.33;433236;1271;141956;-69
2022/01/28 14:25:33;;;;;;;2.10;1.70;;;;;;;2.05;84.93;99428.58;435338;1271;140934;-61
2022/01/28 14:35:39;;;;;;;1.80;1.10;;;;;;;2.09;84.38;99453.48;431415;1271;141355;-64
2022/01/28 14:45:45;;;;;;;1.90;1.40;;;;;;;2.08;83.83;99474.41;433058;1272;145291;-61
2022/01/28 14:55:52;;;;;;;2.80;1.90;;;;;;;1.98;83.79;99504.45;430261;1270;141335;-63
2022/01/28 15:05:58;;;;;;;2.20;1.40;;;;;;;1.84;84.23;99530.39;430124;1272;140661;-61
2022/01/28 15:16:04;;;;;;;2.20;1.80;;;;;;;1.65;84.94;99568.36;434381;1269;142229;-62
2022/01/28 15:26:10;;;;;;;1.00;0.90;;;;;;;1.21;85.04;99581.08;446634;1270;142685;-63
2022/01/28 15:36:16;;;;;;;1.00;0.90;;;;;;;0.87;85.44;99595.69;447195;1270;140913;-63
2022/01/28 15:46:22;;;;;;;3.30;2.20;;;;;;;0.71;85.74;99615.71;447007;1273;142174;-63
2022/01/28 15:56:28;;;;;;;2.60;2.10;;;;;;;0.60;86.34;99631.65;446404;1271;142766;-62
2022/01/28 16:06:37;;;;;;;2.40;2.20;;;;;;;0.49;86.60;99652.39;447117;1271;141694;-60
2022/01/28 16:27:08;;;;;;;2.20;1.20;;;;;;;0.43;86.16;99707.28;436258;1272;141516;-59
2022/01/28 16:37:15;;;;;;;2.80;2.00;;;;;;;0.36;85.72;99727.23;435309;1272;145365;-63
2022/01/28 16:47:21;;;;;;;4.10;2.40;;;;;;;0.26;85.31;99748.42;441173;1270;141500;-61
2022/01/28 16:57:27;;;;;;;3.80;1.50;;;;;;;0.12;85.23;99760.73;438236;1270;145010;-65
2022/01/28 17:07:37;;;;;;;2.80;1.60;;;;;;;-0.12;85.50;99782.33;443954;1270;142126;-65
2022/01/28 17:17:44;;;;;;;5.90;2.00;;;;;;;-0.32;85.76;99802.27;446471;1270;142016;-63
2022/01/28 17:27:51;;;;;;;2.70;2.40;;;;;;;-0.46;85.81;99821.76;447389;1270;141644;-67
2022/01/28 17:37:58;;;;;;;3.00;1.50;;;;;;;-0.61;85.69;99843.28;446455;1270;142685;-65
2022/01/28 17:48:04;;;;;;;4.90;2.60;;;;;;;-0.72;85.81;99863.38;447161;1270;142614;-60
2022/01/28 17:58:10;;;;;;;5.50;3.00;;;;;;;-0.75;85.58;99878.20;447312;1270;141536;-61
2022/01/28 18:08:16;;;;;;;4.30;2.40;;;;;;;-0.86;85.02;99889.16;436972;1270;142935;-62
2022/01/28 18:18:22;;;;;;;4.40;2.20;;;;;;;-1.02;84.82;99895.89;447013;1270;141450;-61
2022/01/28 18:28:28;;;;;;;2.40;2.20;;;;;;;-1.03;84.76;99909.31;447326;1270;141597;-61
2022/01/28 18:38:34;;;;;;;2.60;1.50;;;;;;;-0.91;84.13;99924.63;446039;1273;143359;-62
2022/01/28 18:48:41;;;;;;;3.20;2.30;;;;;;;-0.67;83.73;99943.96;445746;1271;142198;-63
2022/01/28 18:58:47;;;;;;;7.10;2.80;;;;;;;-0.67;83.06;99945.84;439665;1270;141426;-61
2022/01/28 19:08:52;;;;;;;3.20;1.90;;;;;;;-0.73;83.18;99961.90;444488;1272;210919;-61
2022/01/28 19:18:59;;;;;;;7.00;2.90;;;;;;;-0.61;83.10;99978.61;430096;1273;141923;-62
2022/01/28 19:29:05;;;;;;;2.80;1.90;;;;;;;-0.49;82.56;99992.94;430083;1273;142065;-62
2022/01/28 19:39:11;;;;;;;3.00;1.70;;;;;;;-0.35;82.40;100015.13;442956;1270;141611;-62
2022/01/28 19:49:17;;;;;;;4.70;2.10;;;;;;;-0.28;82.13;100028.63;445106;1270;142983;-60
2022/01/28 19:59:23;;;;;;;2.10;1.60;;;;;;;-0.22;81.69;100039.73;435416;1270;142774;-61
2022/01/28 20:09:29;;;;;;;7.60;3.00;;;;;;;-0.21;81.39;100052.30;431420;1271;143419;-61
2022/01/28 20:19:35;;;;;;;4.90;2.00;;;;;;;-0.23;81.01;100079.16;443108;1270;141796;-62
2022/01/28 20:29:41;;;;;;;3.40;1.70;;;;;;;-0.24;80.86;100089.49;439112;1270;142210;-60
2022/01/28 20:39:47;;;;;;;4.10;1.60;;;;;;;-0.22;80.45;100102.55;447241;1270;141959;-62
2022/01/28 20:49:53;;;;;;;7.00;1.90;;;;;;;-0.21;80.04;100117.16;446582;1270;141296;-62
2022/01/28 20:59:59;;;;;;;4.10;2.40;;;;;;;-0.20;79.54;100134.35;439638;1270;141760;-60
2022/01/28 21:10:06;;;;;;;2.90;1.70;;;;;;;-0.20;79.13;100170.33;434017;1273;143145;-60
2022/01/28 21:20:13;;;;;;;4.40;1.50;;;;;;;-0.23;78.68;100189.29;446387;1271;142417;-61
2022/01/28 21:30:17;;;;;;;;;;;;;;;-0.23;78.55;100193.24;434849;1271;141938;-60
2022/01/28 21:40:24;;;;;;;7.60;2.80;;;;;;;-0.26;78.46;100203.93;443097;1271;128882;-61
2022/01/28 21:50:30;;;;;;;11.80;3.00;;;;;;;-0.31;78.18;100221.20;438825;1270;142220;-60
2022/01/28 22:00:37;;;;;;;3.90;1.80;;;;;;;-0.57;78.00;100216.58;437266;1271;141462;-60
2022/01/28 22:10:43;;;;;;;3.90;2.10;;;;;;;-0.81;78.29;100224.16;436652;1270;143387;-61
2022/01/28 22:20:49;;;;;;;3.60;2.10;;;;;;;-0.83;78.61;100225.38;434543;1271;140776;-59
2022/01/28 22:30:55;;;;;;;3.40;1.60;;;;;;;-1.05;79.06;100226.90;443694;1271;143012;-62
2022/01/28 22:41:03;;;;;;;2.60;1.70;;;;;;;-1.23;79.40;100222.70;442325;1271;197147;-63
2022/01/28 22:51:09;;;;;;;5.40;2.00;;;;;;;-1.52;79.51;100232.98;447168;1271;142708;-61
2022/01/28 23:01:15;;;;;;;3.60;1.50;;;;;;;-1.67;79.91;100241.61;447102;1271;142664;-61
2022/01/28 23:11:21;;;;;;;3.90;2.40;;;;;;;-1.84;80.08;100240.63;443162;1271;145808;-61
2022/01/28 23:21:28;;;;;;;5.40;2.20;;;;;;;-2.09;80.36;100246.34;434178;1273;142393;-62
2022/01/28 23:31:34;;;;;;;;;;;;;;;-2.29;80.89;100242.23;444817;1272;142005;-61
2022/01/28 23:41:40;;;;;;;5.70;2.10;;;;;;;-2.51;81.11;100242.77;446241;1273;129053;-61
2022/01/28 23:51:46;;;;;;;5.70;2.30;;;;;;;-2.68;81.48;100243.45;447293;1271;142429;-61
